createdAt,value
2022-11-25T00:01:24.309Z,79.38
2022-11-25T00:03:53.855Z,79.71
2022-11-25T00:06:39.440Z,78.91
2022-11-25T00:09:10.332Z,78.17
2022-11-25T00:11:40.251Z,80.57
2022-11-25T00:14:10.492Z,83.60
2022-11-25T00:16:37.839Z,86.10
2022-11-25T00:19:05.194Z,89.08
2022-11-25T00:21:33.801Z,88.80
2022-11-25T00:24:06.239Z,89.71
2022-11-25T00:26:35.518Z,90.65
2022-11-25T00:29:06.494Z,90.62
2022-11-25T00:31:37.748Z,90.24
2022-11-25T00:34:05.380Z,89.28
2022-11-25T00:36:36.860Z,85.98
2022-11-25T00:39:11.329Z,87.75
2022-11-25T00:41:57.668Z,89.18
2022-11-25T00:44:39.634Z,90.54
2022-11-25T00:47:18.835Z,92.68
2022-11-25T00:49:51.154Z,93.38
2022-11-25T00:52:20.974Z,93.21
2022-11-25T00:54:49.788Z,94.23
2022-11-25T00:57:19.376Z,95.53
2022-11-25T00:59:47.146Z,96.92
2022-11-25T01:02:16.075Z,95.84
2022-11-25T01:04:44.963Z,94.11
2022-11-25T01:07:15.661Z,95.35
2022-11-25T01:09:43.341Z,94.44
2022-11-25T01:12:10.698Z,96.16
2022-11-25T01:14:38.459Z,95.76
2022-11-25T01:17:06.527Z,95.10
2022-11-25T01:19:35.083Z,95.67
2022-11-25T01:22:02.680Z,94.61
2022-11-25T01:24:30.291Z,94.21
2022-11-25T01:26:57.646Z,91.12
2022-11-25T01:29:25.202Z,87.26
2022-11-25T01:31:57.652Z,88.06
2022-11-25T01:34:26.533Z,91.41
2022-11-25T01:36:57.353Z,92.90
2022-11-25T01:39:30.390Z,93.21
2022-11-25T01:42:00.323Z,88.33
2022-11-25T01:44:29.063Z,89.38
2022-11-25T01:47:17.023Z,89.14
2022-11-25T01:49:45.921Z,94.06
2022-11-25T01:52:27.175Z,94.66
2022-11-25T01:55:00.194Z,95.39
2022-11-25T01:57:56.190Z,90.22
2022-11-25T02:00:25.620Z,84.70
2022-11-25T02:02:55.295Z,82.91
2022-11-25T02:05:36.568Z,85.93
2022-11-25T02:08:04.693Z,83.33
2022-11-25T02:10:32.615Z,84.15
2022-11-25T02:13:00.345Z,81.49
2022-11-25T02:15:29.334Z,83.46
2022-11-25T02:17:56.823Z,89.13
2022-11-25T02:20:25.780Z,93.00
2022-11-25T02:23:30.966Z,86.74
2022-11-25T02:25:59.829Z,93.83
2022-11-25T02:28:30.487Z,94.77
2022-11-25T02:30:58.716Z,94.57
2022-11-25T02:33:27.344Z,95.17
2022-11-25T02:35:58.204Z,96.15
2022-11-25T02:38:36.674Z,97.59
2022-11-25T02:41:16.998Z,96.35
2022-11-25T02:43:44.984Z,91.54
2022-11-25T02:46:20.327Z,84.33
2022-11-25T02:49:08.321Z,82.78
2022-11-25T02:51:38.394Z,83.69
2022-11-25T02:54:06.585Z,83.70
2022-11-25T02:56:35.472Z,83.40
2022-11-25T02:59:03.799Z,85.68
2022-11-25T03:01:31.840Z,86.63
2022-11-25T03:03:59.640Z,93.42
2022-11-25T03:06:29.247Z,94.67
2022-11-25T03:08:57.793Z,95.34
2022-11-25T03:11:47.045Z,96.93
2022-11-25T03:14:14.812Z,96.46
2022-11-25T03:16:42.642Z,96.56
2022-11-25T03:19:10.040Z,97.25
2022-11-25T03:21:37.613Z,97.39
2022-11-25T03:24:05.266Z,97.40
2022-11-25T03:26:32.913Z,96.15
2022-11-25T03:29:00.506Z,97.26
2022-11-25T03:31:28.098Z,96.34
2022-11-25T03:33:55.843Z,91.00
2022-11-25T03:36:23.709Z,88.41
2022-11-25T03:38:51.158Z,88.38
2022-11-25T03:41:18.618Z,84.00
2022-11-25T03:43:47.193Z,82.78
2022-11-25T03:46:14.923Z,81.21
2022-11-25T03:48:42.639Z,84.30
2022-11-25T03:51:10.358Z,83.20
2022-11-25T03:53:38.379Z,86.25
2022-11-25T03:56:06.322Z,93.53
2022-11-25T03:58:34.890Z,95.25
2022-11-25T04:01:04.082Z,92.14
2022-11-25T04:03:31.900Z,90.46
2022-11-25T04:05:59.345Z,89.43
2022-11-25T04:08:27.846Z,91.11
2022-11-25T04:10:55.757Z,91.42
2022-11-25T04:13:23.704Z,94.40
2022-11-25T04:15:52.031Z,92.57
2022-11-25T04:18:20.483Z,96.04
2022-11-25T04:20:49.854Z,90.37
2022-11-25T04:23:17.352Z,88.68
2022-11-25T04:25:45.208Z,91.97
2022-11-25T04:28:12.539Z,91.06
2022-11-25T04:30:41.229Z,96.37
2022-11-25T04:33:09.253Z,95.16
2022-11-25T04:35:36.902Z,92.35
2022-11-25T04:38:04.381Z,96.67
2022-11-25T04:40:33.818Z,97.77
2022-11-25T04:43:06.057Z,98.20
2022-11-25T04:48:29.447Z,97.98
2022-11-25T04:50:57.828Z,99.33
2022-11-25T04:53:25.211Z,96.65
2022-11-25T04:55:53.351Z,95.84
2022-11-25T04:58:40.964Z,96.62
2022-11-25T05:01:08.633Z,97.68
2022-11-25T05:03:36.960Z,98.06
2022-11-25T05:06:08.521Z,98.59
2022-11-25T05:08:36.513Z,89.40
2022-11-25T05:11:03.975Z,91.39
2022-11-25T05:13:31.453Z,86.97
2022-11-25T05:16:00.266Z,84.58
2022-11-25T05:18:27.776Z,83.47
2022-11-25T05:20:55.274Z,82.96
2022-11-25T05:23:23.032Z,83.06
2022-11-25T05:25:50.409Z,82.67
2022-11-25T05:28:19.807Z,84.00
2022-11-25T05:30:48.334Z,84.25
2022-11-25T05:33:17.125Z,84.74
2022-11-25T05:35:44.489Z,84.55
2022-11-25T05:38:12.133Z,88.83
2022-11-25T05:40:39.518Z,96.10
2022-11-25T05:43:07.160Z,97.29
2022-11-25T05:45:35.120Z,98.44
2022-11-25T05:48:03.804Z,99.27
2022-11-25T05:50:32.337Z,98.82
2022-11-25T05:53:03.310Z,98.53
2022-11-25T05:55:30.776Z,98.51
2022-11-25T05:57:59.503Z,98.66
2022-11-25T06:00:27.291Z,97.88
2022-11-25T06:02:55.088Z,97.92
2022-11-25T06:05:22.568Z,96.34
2022-11-25T06:07:50.426Z,94.97
2022-11-25T06:10:19.039Z,93.28
2022-11-25T06:12:46.729Z,94.51
2022-11-25T06:15:15.118Z,93.78
2022-11-25T06:17:42.756Z,92.20
2022-11-25T06:20:11.007Z,92.07
2022-11-25T06:22:38.382Z,92.33
2022-11-25T06:25:08.165Z,91.51
2022-11-25T06:28:04.542Z,90.10
2022-11-25T06:30:23.798Z,92.25
2022-11-25T06:32:54.564Z,93.07
2022-11-25T06:35:22.967Z,93.38
2022-11-25T06:37:51.058Z,92.77
2022-11-25T06:40:18.536Z,92.03
2022-11-25T06:42:45.873Z,90.38
2022-11-25T06:45:13.450Z,86.94
2022-11-25T06:47:40.755Z,83.90
2022-11-25T06:50:08.246Z,83.14
2022-11-25T06:52:35.962Z,84.54
2022-11-25T06:55:04.719Z,86.63
2022-11-25T06:57:32.551Z,88.81
2022-11-25T07:00:00.192Z,91.78
2022-11-25T07:02:27.894Z,91.48
2022-11-25T07:04:55.309Z,91.14
2022-11-25T07:07:22.869Z,90.21
2022-11-25T07:09:50.302Z,90.19
2022-11-25T07:12:17.605Z,91.86
2022-11-25T07:14:45.229Z,90.14
2022-11-25T07:17:13.446Z,87.93
2022-11-25T07:19:41.124Z,86.89
2022-11-25T07:22:08.893Z,87.24
2022-11-25T07:24:36.895Z,88.45
2022-11-25T07:27:06.896Z,85.15
2022-11-25T07:29:57.961Z,83.79
2022-11-25T07:32:23.111Z,86.18
2022-11-25T07:34:51.537Z,84.27
2022-11-25T07:37:18.855Z,86.97
2022-11-25T07:39:47.474Z,83.64
2022-11-25T07:42:15.193Z,86.36
2022-11-25T07:44:42.568Z,89.41
2022-11-25T07:47:10.237Z,90.97
2022-11-25T07:49:39.969Z,84.11
2022-11-25T07:52:07.352Z,86.08
2022-11-25T07:54:34.675Z,84.97
2022-11-25T07:57:02.618Z,82.61
2022-11-25T07:59:30.048Z,84.87
2022-11-25T08:01:57.502Z,80.85
2022-11-25T08:04:25.274Z,82.61
2022-11-25T08:06:53.420Z,82.33
2022-11-25T08:09:22.863Z,81.16
2022-11-25T08:11:50.766Z,82.90
2022-11-25T08:14:18.427Z,79.81
2022-11-25T08:16:45.769Z,83.04
2022-11-25T08:19:15.818Z,81.29
2022-11-25T08:21:43.324Z,83.08
2022-11-25T08:24:15.894Z,83.24
2022-11-25T08:26:43.532Z,87.02
2022-11-25T08:29:15.435Z,86.58
2022-11-25T08:31:43.260Z,87.03
2022-11-25T08:34:17.707Z,84.81
2022-11-25T08:36:48.650Z,83.81
2022-11-25T08:39:44.266Z,82.89
2022-11-25T08:42:05.671Z,83.50
2022-11-25T08:44:33.501Z,82.26
2022-11-25T08:47:01.032Z,80.43
2022-11-25T08:49:31.152Z,84.49
2022-11-25T08:52:01.079Z,83.48
2022-11-25T08:54:28.690Z,84.63
2022-11-25T08:56:56.356Z,83.51
2022-11-25T08:59:25.263Z,83.54
2022-11-25T09:01:53.037Z,82.08
2022-11-25T09:04:20.449Z,84.40
2022-11-25T09:06:47.801Z,82.81
2022-11-25T09:09:15.399Z,84.68
2022-11-25T09:11:42.785Z,82.97
2022-11-25T09:14:10.240Z,81.60
2022-11-25T09:16:38.197Z,83.48
2022-11-25T09:19:06.669Z,83.09
2022-11-25T09:21:34.073Z,80.78
2022-11-25T09:24:01.674Z,82.04
2022-11-25T09:26:31.528Z,79.13
2022-11-25T09:28:58.905Z,79.35
2022-11-25T09:31:26.584Z,81.17
2022-11-25T09:33:54.015Z,80.10
2022-11-25T09:36:23.319Z,81.65
2022-11-25T09:38:51.571Z,82.24
2022-11-25T09:42:02.430Z,76.54
2022-11-25T09:45:10.243Z,79.99
2022-11-25T09:47:52.913Z,79.54
2022-11-25T09:50:41.355Z,76.17
2022-11-25T09:53:21.371Z,77.16
2022-11-25T09:55:50.852Z,77.84
2022-11-25T09:58:33.542Z,75.32
2022-11-25T10:01:05.578Z,77.79
2022-11-25T10:03:33.804Z,75.94
2022-11-25T10:06:18.406Z,79.69
2022-11-25T10:08:58.614Z,79.28
2022-11-25T10:11:46.194Z,80.70
2022-11-25T10:14:31.106Z,81.33
2022-11-25T10:17:04.099Z,80.81
2022-11-25T10:19:55.448Z,80.71
2022-11-25T10:22:25.955Z,79.49
2022-11-25T10:24:57.679Z,79.81
2022-11-25T10:27:40.475Z,79.71
2022-11-25T10:30:21.406Z,77.74
2022-11-25T10:33:02.798Z,72.37
2022-11-25T10:35:35.719Z,70.97
2022-11-25T10:38:06.995Z,73.76
2022-11-25T10:40:34.628Z,74.58
2022-11-25T10:43:05.735Z,74.38
2022-11-25T10:45:40.621Z,72.21
2022-11-25T10:48:30.318Z,70.48
2022-11-25T10:51:38.138Z,68.85
2022-11-25T10:54:39.211Z,68.46
2022-11-25T10:57:19.994Z,70.29
2022-11-25T10:59:59.016Z,72.76
2022-11-25T11:02:35.549Z,70.43
2022-11-25T11:05:18.493Z,73.00
2022-11-25T11:07:47.132Z,74.10
2022-11-25T11:10:14.752Z,76.01
2022-11-25T11:13:05.029Z,77.02
2022-11-25T11:15:41.685Z,77.10
2022-11-25T11:18:30.568Z,77.38
2022-11-25T11:20:59.824Z,76.34
2022-11-25T11:23:28.686Z,76.57
2022-11-25T11:25:59.951Z,76.26
2022-11-25T11:28:39.755Z,74.30
2022-11-25T11:31:17.709Z,75.32
2022-11-25T11:33:48.399Z,73.72
2022-11-25T11:36:21.570Z,70.94
2022-11-25T11:39:06.634Z,75.24
2022-11-25T11:41:40.231Z,74.12
2022-11-25T11:44:45.183Z,73.92
2022-11-25T11:47:28.260Z,74.28
2022-11-25T11:50:14.681Z,73.27
2022-11-25T11:52:44.699Z,71.71
2022-11-25T11:56:05.656Z,73.16
2022-11-25T11:58:45.071Z,71.03
2022-11-25T12:01:41.041Z,66.03
2022-11-25T12:04:18.002Z,69.78
2022-11-25T12:07:16.673Z,66.37
2022-11-25T12:09:50.403Z,65.39
2022-11-25T12:12:19.382Z,64.44
2022-11-25T12:14:51.089Z,64.95
2022-11-25T12:17:27.491Z,65.16
2022-11-25T12:20:04.089Z,65.73
2022-11-25T12:22:49.319Z,65.45
2022-11-25T12:25:22.849Z,65.79
2022-11-25T12:27:57.026Z,62.88
2022-11-25T12:30:29.904Z,64.78
2022-11-25T12:33:21.167Z,62.74
2022-11-25T12:35:57.471Z,63.24
2022-11-25T12:38:37.883Z,61.68
2022-11-25T12:41:22.196Z,60.95
2022-11-25T12:44:00.581Z,61.05
2022-11-25T12:46:39.576Z,60.87
2022-11-25T12:49:14.248Z,64.19
2022-11-25T12:51:57.770Z,65.90
2022-11-25T12:54:49.109Z,62.47
2022-11-25T12:57:22.583Z,59.33
2022-11-25T13:00:32.702Z,62.17
2022-11-25T13:03:21.153Z,65.09
2022-11-25T13:06:22.715Z,61.23
2022-11-25T13:09:11.932Z,60.02
2022-11-25T13:12:18.018Z,58.93
2022-11-25T13:15:07.959Z,60.04
2022-11-25T13:17:40.110Z,58.93
2022-11-25T13:20:29.644Z,60.55
2022-11-25T13:23:13.222Z,61.49
2022-11-25T13:25:43.129Z,62.47
2022-11-25T13:28:32.789Z,62.69
2022-11-25T13:31:15.916Z,65.42
2022-11-25T13:33:43.341Z,67.45
2022-11-25T13:36:23.818Z,65.92
2022-11-25T13:38:51.064Z,64.91
2022-11-25T13:41:48.813Z,65.88
2022-11-25T13:44:22.087Z,67.16
2022-11-25T13:46:52.322Z,66.08
2022-11-25T13:49:44.215Z,66.64
2022-11-25T13:52:12.073Z,65.02
2022-11-25T13:54:44.586Z,63.30
2022-11-25T13:57:12.105Z,60.72
2022-11-25T13:59:42.123Z,60.60
2022-11-25T14:02:27.818Z,60.13
2022-11-25T14:05:00.762Z,60.67
2022-11-25T14:07:51.713Z,60.16
2022-11-25T14:10:31.184Z,61.78
2022-11-25T14:13:23.618Z,60.52
2022-11-25T14:16:07.099Z,64.18
2022-11-25T14:22:18.732Z,64.82
2022-11-25T14:24:49.598Z,62.46
2022-11-25T14:27:28.209Z,64.81
2022-11-25T14:30:19.343Z,64.28
2022-11-25T14:32:58.460Z,62.04
2022-11-25T14:35:45.078Z,65.38
2022-11-25T14:38:23.408Z,63.16
2022-11-25T14:41:10.427Z,63.67
2022-11-25T14:43:42.321Z,64.73
2022-11-25T14:46:21.357Z,65.75
2022-11-25T14:48:56.506Z,67.59
2022-11-25T14:51:26.476Z,68.03
2022-11-25T14:53:54.467Z,67.43
2022-11-25T14:56:30.116Z,66.93
2022-11-25T14:58:58.893Z,68.25
2022-11-25T15:01:31.109Z,73.72
2022-11-25T15:04:15.821Z,76.32
2022-11-25T15:06:49.020Z,77.67
2022-11-25T15:09:22.506Z,78.39
2022-11-25T15:12:13.722Z,79.60
2022-11-25T15:14:43.071Z,80.54
2022-11-25T15:17:24.656Z,80.85
2022-11-25T15:19:52.742Z,82.08
2022-11-25T15:22:23.514Z,83.58
2022-11-25T15:24:55.824Z,85.27
2022-11-25T15:27:26.380Z,86.37
2022-11-25T15:29:55.559Z,85.50
2022-11-25T15:32:25.520Z,84.88
2022-11-25T15:34:53.788Z,83.74
2022-11-25T15:37:21.485Z,83.29
2022-11-25T15:39:48.817Z,83.66
2022-11-25T15:42:22.443Z,82.43
2022-11-25T15:44:55.194Z,81.39
2022-11-25T15:47:25.748Z,78.37
2022-11-25T15:50:00.616Z,75.22
2022-11-25T15:52:38.088Z,73.27
2022-11-25T15:55:08.262Z,72.99
2022-11-25T15:57:37.077Z,74.35
2022-11-25T16:00:14.566Z,72.31
2022-11-25T16:02:42.171Z,71.31
2022-11-25T16:05:12.540Z,72.00
2022-11-25T16:07:52.125Z,72.70
2022-11-25T16:10:25.057Z,72.77
2022-11-25T16:13:23.609Z,73.78
2022-11-25T16:16:00.483Z,77.48
2022-11-25T16:18:41.874Z,80.33
2022-11-25T16:21:16.393Z,83.75
2022-11-25T16:24:06.932Z,83.02
2022-11-25T16:26:37.660Z,80.38
2022-11-25T16:29:31.366Z,77.67
2022-11-25T16:32:00.514Z,77.91
2022-11-25T16:34:29.162Z,79.59
2022-11-25T16:36:56.615Z,79.79
2022-11-25T16:39:24.223Z,78.49
2022-11-25T16:41:57.373Z,78.90
2022-11-25T16:44:26.584Z,81.88
2022-11-25T16:46:55.017Z,80.41
2022-11-25T16:49:22.737Z,79.47
2022-11-25T16:51:51.012Z,82.55
2022-11-25T16:54:19.617Z,80.75
2022-11-25T16:56:48.993Z,79.35
2022-11-25T16:59:19.814Z,79.41
2022-11-25T17:01:48.007Z,79.82
2022-11-25T17:04:16.160Z,81.02
2022-11-25T17:06:50.586Z,82.00
2022-11-25T17:09:32.379Z,80.05
2022-11-25T17:12:00.889Z,79.03
2022-11-25T17:14:31.613Z,81.40
2022-11-25T17:17:00.660Z,82.87
2022-11-25T17:19:28.593Z,83.67
2022-11-25T17:21:56.055Z,83.82
2022-11-25T17:24:24.792Z,85.62
2022-11-25T17:26:59.333Z,84.76
2022-11-25T17:29:33.235Z,82.05
2022-11-25T17:32:02.594Z,83.29
2022-11-25T17:34:33.685Z,84.12
2022-11-25T17:37:06.934Z,84.10
2022-11-25T17:39:35.140Z,84.24
2022-11-25T17:42:05.201Z,85.11
2022-11-25T17:44:32.859Z,82.28
2022-11-25T17:47:00.710Z,81.74
2022-11-25T17:49:28.813Z,79.38
2022-11-25T17:51:58.041Z,82.48
2022-11-25T17:54:25.964Z,83.38
2022-11-25T17:56:54.407Z,79.62
2022-11-25T17:59:33.246Z,79.50
2022-11-25T18:02:01.143Z,80.41
2022-11-25T18:04:36.517Z,82.81
2022-11-25T18:07:04.229Z,82.38
2022-11-25T18:09:32.139Z,81.93
2022-11-25T18:12:01.535Z,81.54
2022-11-25T18:14:32.453Z,78.86
2022-11-25T18:17:07.726Z,80.22
2022-11-25T18:19:35.324Z,81.63
2022-11-25T18:22:12.959Z,81.26
2022-11-25T18:24:41.388Z,80.04
2022-11-25T18:27:19.937Z,78.18
2022-11-25T18:29:47.978Z,77.02
2022-11-25T18:32:16.079Z,74.77
2022-11-25T18:34:43.953Z,74.55
2022-11-25T18:37:12.129Z,74.46
2022-11-25T18:39:40.273Z,75.93
2022-11-25T18:42:14.973Z,78.69
2022-11-25T18:44:44.899Z,80.50
2022-11-25T18:47:14.103Z,79.96
2022-11-25T18:49:41.916Z,81.73
2022-11-25T18:52:10.088Z,82.03
2022-11-25T18:54:38.120Z,84.28
2022-11-25T18:57:06.319Z,83.95
2022-11-25T18:59:36.428Z,85.46
2022-11-25T19:02:09.355Z,87.06
2022-11-25T19:04:37.369Z,88.20
2022-11-25T19:07:05.406Z,87.48
2022-11-25T19:09:33.290Z,87.45
2022-11-25T19:12:01.993Z,86.64
2022-11-25T19:14:36.224Z,84.86
2022-11-25T19:17:09.296Z,82.38
2022-11-25T19:19:38.522Z,82.17
2022-11-25T19:22:12.860Z,84.56
2022-11-25T19:24:40.996Z,82.67
2022-11-25T19:27:18.016Z,82.31
2022-11-25T19:29:46.513Z,82.16
2022-11-25T19:32:21.702Z,80.98
2022-11-25T19:34:57.672Z,79.89
2022-11-25T19:37:26.071Z,79.88
2022-11-25T19:39:55.152Z,79.90
2022-11-25T19:42:25.517Z,79.83
2022-11-25T19:44:54.774Z,80.37
2022-11-25T19:47:25.269Z,78.67
2022-11-25T19:49:55.314Z,76.32
2022-11-25T19:52:26.858Z,74.63
2022-11-25T19:54:55.098Z,77.44
2022-11-25T19:57:24.223Z,77.97
2022-11-25T19:59:51.894Z,79.25
2022-11-25T20:02:23.247Z,79.71
2022-11-25T20:04:54.137Z,77.91
2022-11-25T20:07:22.497Z,81.90
2022-11-25T20:09:51.591Z,79.49
2022-11-25T20:12:25.897Z,78.68
2022-11-25T20:14:54.553Z,78.98
2022-11-25T20:17:30.212Z,80.78
2022-11-25T20:20:00.649Z,80.58
2022-11-25T20:22:33.406Z,78.78
2022-11-25T20:25:02.841Z,76.14
2022-11-25T20:27:31.193Z,75.77
2022-11-25T20:30:03.458Z,76.85
2022-11-25T20:32:34.449Z,77.11
2022-11-25T20:35:02.518Z,76.87
2022-11-25T20:37:40.968Z,76.60
2022-11-25T20:40:17.223Z,76.43
2022-11-25T20:42:45.625Z,76.73
2022-11-25T20:45:15.600Z,76.88
2022-11-25T20:47:44.330Z,76.42
2022-11-25T20:50:15.747Z,76.00
2022-11-25T20:52:44.314Z,74.40
2022-11-25T20:55:20.712Z,75.17
2022-11-25T20:57:52.042Z,78.18
2022-11-25T21:00:25.145Z,79.87
2022-11-25T21:02:54.500Z,79.07
2022-11-25T21:05:21.953Z,77.76
2022-11-25T21:07:51.001Z,76.56
2022-11-25T21:10:20.763Z,76.99
2022-11-25T21:12:48.744Z,76.31
2022-11-25T21:15:21.487Z,75.90
2022-11-25T21:17:49.356Z,75.34
2022-11-25T21:20:17.836Z,75.29
2022-11-25T21:22:49.188Z,75.34
2022-11-25T21:25:18.659Z,75.17
2022-11-25T21:27:47.237Z,74.65
2022-11-25T21:30:27.659Z,74.03
2022-11-25T21:32:56.824Z,75.87
2022-11-25T21:35:34.881Z,75.42
2022-11-25T21:38:05.668Z,76.75
2022-11-25T21:40:41.153Z,76.88
2022-11-25T21:43:21.461Z,76.95
2022-11-25T21:45:53.077Z,76.29
2022-11-25T21:48:25.427Z,76.66
2022-11-25T21:50:53.200Z,76.63
2022-11-25T21:53:20.885Z,78.17
2022-11-25T21:55:48.588Z,76.83
2022-11-25T21:58:19.287Z,77.03
2022-11-25T22:01:05.369Z,77.22
2022-11-25T22:03:33.040Z,78.38
2022-11-25T22:06:00.385Z,79.84
2022-11-25T22:08:27.926Z,78.40
2022-11-25T22:10:55.934Z,78.56
2022-11-25T22:13:27.949Z,77.75
2022-11-25T22:15:57.160Z,78.73
2022-11-25T22:18:43.217Z,83.96
2022-11-25T22:21:14.919Z,79.68
2022-11-25T22:23:42.433Z,78.56
2022-11-25T22:26:21.266Z,76.86
2022-11-25T22:28:51.001Z,75.23
2022-11-25T22:31:19.615Z,73.64
2022-11-25T22:33:48.082Z,73.01
2022-11-25T22:36:28.931Z,72.04
2022-11-25T22:38:58.734Z,70.82
2022-11-25T22:41:27.108Z,72.34
2022-11-25T22:43:54.689Z,72.24
2022-11-25T22:46:22.084Z,71.91
2022-11-25T22:48:49.719Z,72.74
2022-11-25T22:51:18.755Z,73.95
2022-11-25T22:53:46.761Z,80.36
2022-11-25T22:56:19.432Z,75.42
2022-11-25T22:58:47.068Z,75.65
2022-11-25T23:01:16.017Z,75.30
2022-11-25T23:03:43.930Z,75.29
2022-11-25T23:06:14.583Z,76.07
2022-11-25T23:08:42.182Z,76.46
2022-11-25T23:11:16.103Z,75.62
2022-11-25T23:13:43.767Z,74.89
2022-11-25T23:16:11.395Z,74.81
2022-11-25T23:18:42.767Z,74.44
2022-11-25T23:21:19.669Z,74.56
2022-11-25T23:23:46.999Z,78.60
2022-11-25T23:29:00.002Z,76.75
2022-11-25T23:31:27.644Z,76.05
2022-11-25T23:33:55.019Z,76.59
2022-11-25T23:36:25.971Z,76.13
2022-11-25T23:38:56.175Z,78.46
2022-11-25T23:41:34.304Z,77.98
2022-11-25T23:44:10.620Z,76.05
2022-11-25T23:46:38.082Z,75.96
2022-11-25T23:49:07.590Z,75.69
2022-11-25T23:51:34.901Z,83.62
2022-11-25T23:54:02.299Z,87.70
2022-11-25T23:56:29.970Z,88.84
2022-11-25T23:58:57.319Z,89.10
